Current Weather

Rurrenabaque

Rurrenabaque, Bolivia (SLRQ)

Report from: Friday, December 2, 2022 4:00 PM -04
Current time: Sunday, December 4, 2022 7:58 AM -04

Nearby weather
Weather history
Weather forecast

Temperature27.0°C (80.6°F)
Heat index29.3°C (84.8°F)
Dew point22.0°C (71.6°F)
Winds 5 kts (2.6 m/s, 5.8 mph) South-Southeast (160°)
Visibility6.2 mi. (10 km)
Clouds Few clouds 2,000 ft. (610 m)
Scattered clouds 7,000 ft. (2,134 m)
Ceiling: Broken clouds 20,000 ft. (6,096 m)
Altimeter29.71 in.Hg (1006 mB)
Relative humidity74 %
Density altitude1,984 ft. (605 m)
Flight conditions Visual Meteorological Conditions
Raw dataSLRQ 022000Z 16005KT 9999 FEW020 SCT070 BKN200 27/22 Q1006
An error has occurred. This application may no longer respond until reloaded. Reload 🗙